Timeline UpdatesTrip UpdatesNews PostsPvt PostsTravel TipsAdmin PostsConv PostsFollowed PostsChat RequestsBlog PostsPNR Posts

Disclaimer
Search
 
 
Fri Apr 25, 2014 00:14:13 ISTHomeTrainsΣChainsAtlasPNRForumGalleryNewsFAQTripsMembersLoginFeedback
No Recent News for this Train
Other Trains in the News **new
Latest...
.
Sat Feb 22, 2014 (11:15PM)
⇐ Return Journey: Train# 58502

58501/Visakhapatnam - Kirandul Passenger

Jul 11 2013 (9:20PM)
Change Departure Station:
Change Arrival Station:
Post a Train Travel TipPost a Train Travel Tip **new
Post a Comment/Question/Picture/VideoPost a Comment/Question/Picture/Video
Pantry/Catering
✕ NO Pantry Car
✕ NO Catering
RSA - Rake Sharing
Rake/Coach Composition
One First Class, o­ne Sleeper Class, Two Second Class Chair Cars, 05 General Second Class Coaches and two Guard cum luggage vans.; News#123359
Loco
Official Loco Link:- VSKP WAG-5
News    PNR    Forum    Time-Table    Availability    Fare Chart    Map    Arr/Dep History    Trips    Gallery    ΣChains    X/O    Timeline    
Travel Time: 13h 55m    49 halts    Distance: 469 km    Avg Speed: 33 km/hr
Type: Passenger
Zone: ECoR/East Coast
Departs @ 06:50 (Avg 2m late)
Platform# 5
SMTWTFS
Visakhapatnam Junction/VSKP 
Arrives @ 20:45 (Avg 17m late)
Platform# ???
SMTWTFS
Kirandul/KRDL 

49 halts. 53 intermediate Stations between Visakhapatnam Junction and Kirandul

Show ALL intermediate Stations  Show Old Time-Table

#CodeStation NameX/OArrivesAvgDepartsAvgHaltPFDay#KmSpeedElevZoneAddress
1VSKP»Visakhapatnam Junction (8)»  -06:50+2510.02511mECoRVishakhapatnam 530001, Andhra Pradesh
2MIPMMarripalem (2)  07:01+207:02+21m214.52917mECoRVishakhapatnam, Andhra Pradesh
3SCMSimhachalam (2)X  07:09+807:10+91m217.95027mECoRVisakhapatnam, Andhra Pradesh
4PDTPendurti (7)  07:21+907:22+91m--117.25927mECoRVisakhapatnam, Andhra Pradesh
5KTVKottavalasa Junction (5)  07:31+1207:32+171m3126.04958mECoRVizianagaram District, Andhra Pradesh
6MVWMallividu  07:43+2007:44+211m--135.04976mECoRCoastal Andhra Region, Andhra Pradesh
7SUPShrungavarapukota  08:05+2808:06+311m--152.031103mECoRSrungavarapu kota, Andhra Pradesh
8BDVRBoddavara  08:20+3108:21+341m--159.332159mECoRECoR, Andhra Pradesh
9SLPMShivalingapuram  08:44+3208:45+331m--171.437332mECoRCoastal Andhra Region, Andhra Pradesh
10TXDTyada  08:56+3708:57+421m--178.127422mECoRVishakhapatnam, Andhra Pradesh
11CMDPChimidipalli  09:20+4209:21+421m--188.428606mECoRBorra, Andhra Pradesh
12BGHUBorra Guhalu  09:39+4009:40+441m--197.038725mECoRBorra Guhalu, Andhra Pradesh
13KVLSKarakavalasa  09:57+4609:58+471m--1107.827891mECoRCoastal Andhra Region, Andhra Pradesh
14SMLGShimiliguda (1)  10:17+4510:18+461m11116.3341004mECoRWay to Araku, Andhra Pradesh
15ARKAraku (1)  10:40+4310:45+455m11128.644925mECoRAraku . ph.no. 08936-249672, Andhra Pradesh
16GPJGorapur  10:58+4910:59+501m--1138.243910mECoRJeypore Rd, Andhra Pradesh
17DPCDarliput  11:16+5411:17+541m--1150.551867mECoRDarliput, Odisha
18PFUPadua  11:29+5611:30+561m--1160.651877mECoRPaduwa Station, Odisha
19BHJABheja  11:42+5711:43+571m--1170.949886mECoRBheja Station, Odisha
20MKRDMachhakunda  11:57+1:0011:58+1:011m--1182.354880mECoRPadwa Rd, Odisha
21PBVPaliba  12:12+1:0312:13+1:041m--1195.023911mECoRPaliba Station, Odisha
22SUKUSuku  12:33+5512:34+571m--1202.732905mECoRSuku, Odisha
23KRPUKoraput Junction (3)X  12:55+5213:00+1:035m--1213.927881mECoRkoraput ph.no. 06852-251502, Odisha
24MVFManabar  13:15+1:0113:16+1:061m--1220.743834mECoRManabar Station, Odisha
25JRTJarti  13:29+1:0813:30+1:131m--1229.933768mECoRJarti Station, Odisha
26MVGMaliguraX  13:50+1:1113:51+1:121m--1240.941662mECoRMaligura Station, Odisha
27CTSChattriput  14:01+1:1314:02+1:151m--1247.921621mECoRJeypore, Odisha
28JYPJeypore (1)  14:22+1:0814:23+1:111m--1254.960595mECoRJeypore, Odisha
29DIRDhanapur Orissa  14:32+1:1214:33+1:131m--1263.954559mECoRNational Highway 43, Odisha
30KDPAKhadapa  14:42+1:1314:43+1:141m--1272.021595mECoRKhadapa, Odisha
31CJSCharamula KusumX  14:53+1:1314:54+1:141m--1275.559592mECoRBhansuli Kotpad PMGSY Rd, Chhattisgarh
32KPRRKotapar Road  15:06+1:1315:07+1:141m--1287.451552mECoRBhansuli Kotpad PMGSY Rd, Chhattisgarh
33AGBAmbagaon  15:16+1:1415:17+1:151m--1295.054549mECoRAmbagaon, Chhattisgarh
34AGZAmagura  15:28+1:1415:29+1:151m--1304.953562mECoRMarkel, Chhattisgarh
35NKXNakati Semra  15:38+1:1515:39+1:151m--1312.819562mECoRJagdalpur, Chhattisgarh
36JDBJagdalpur  16:00+1:0616:05+1:055m--1319.359569mECoRJagdalpur, Chhattisgarh
37KMEZKumar Maranga  16:14+1:0616:15+1:061m--1328.155561mECoRNational Highway 16, Chhattisgarh
38TPQTopokal  16:24+1:0616:25+1:061m--1336.435557mECoRRaikot, Chhattisgarh
39BDXXBade Arapur  16:34+1:0616:35+1:061m--1341.741578mECoRBade Arapur, Chhattisgarh
40DMKDilmili  16:52+1:0616:53+1:061m--1353.439703mECoRDilmili, Chhattisgarh
41SZYSilak Jhori  17:10+1:0617:11+1:061m--1364.442702mECoRKodenar, Chhattisgarh
42KMSDKumar Sadra  17:24+1:0617:25+1:061m--1373.451656mECoRTirthum, Chhattisgarh
43KKLUKaklur  17:40+1:0717:41+1:071m--1386.248576mECoRKaklur, Chhattisgarh
44KWGNKawargaon  17:56+1:0817:57+1:081m--1398.341527mECoRKawargaon, Chhattisgarh
45DBFDabpal  18:10+1:0818:11+1:081m--1407.247464mECoRDabpal, Chhattisgarh
46GIZGidam  18:25+1:0818:26+1:081m--1418.130408mECoRNational Highway 16, Chhattisgarh
47DWZDantewara  18:41+1:0118:42+1:011m11425.535362mECoRDantewada, Chhattisgarh
48KMLRKamalur  19:03+5719:04+581m--1437.943434mECoRKamalur, Chhattisgarh
49BHNSBhansi  19:21+5619:22+561m--1450.238521mECoRDhurli-Basenpur Rd, Chhattisgarh
50BCHLBacheli  19:38+3519:39+331m--1460.48608mECoRDhurli-Basenpur Rd, Chhattisgarh
51KRDL•Kirandul•  20:45+17---1469.0-631mECoRKirandul, Chhattisgarh
Scroll to Top
Scroll to Bottom